createdAt,value
2017-05-15T00:00:05.036Z,68.90
2017-05-15T00:02:34.058Z,69.50
2017-05-15T00:05:03.114Z,70.30
2017-05-15T00:07:32.176Z,74.00
2017-05-15T00:10:01.191Z,73.70
2017-05-15T00:12:43.253Z,73.20
2017-05-15T00:15:12.242Z,74.80
2017-05-15T00:17:41.226Z,78.20
2017-05-15T00:20:10.269Z,77.60
2017-05-15T00:22:40.006Z,79.00
2017-05-15T00:25:09.009Z,78.70
2017-05-15T00:27:41.618Z,76.90
2017-05-15T00:30:10.615Z,80.10
2017-05-15T00:32:39.625Z,72.20
2017-05-15T00:35:09.508Z,70.90
2017-05-15T00:37:38.501Z,69.80
2017-05-15T00:40:07.495Z,70.30
2017-05-15T00:42:40.304Z,74.30
2017-05-15T00:45:10.035Z,79.50
2017-05-15T00:47:39.040Z,76.60
2017-05-15T00:50:08.057Z,76.20
2017-05-15T00:52:37.047Z,78.20
2017-05-15T00:55:06.066Z,78.80
2017-05-15T00:57:35.110Z,73.50
2017-05-15T01:00:04.107Z,78.60
2017-05-15T01:02:33.099Z,73.10
2017-05-15T01:05:02.152Z,75.40
2017-05-15T01:07:31.881Z,77.70
2017-05-15T01:10:00.867Z,80.40
2017-05-15T01:12:30.639Z,82.90
2017-05-15T01:14:59.622Z,82.40
2017-05-15T01:17:28.615Z,83.20
2017-05-15T01:19:57.658Z,81.90
2017-05-15T01:22:40.751Z,83.50
2017-05-15T01:25:09.785Z,83.70
2017-05-15T01:27:38.778Z,84.50
2017-05-15T01:30:07.787Z,84.80
2017-05-15T01:32:36.966Z,84.80
2017-05-15T01:35:05.958Z,85.30
2017-05-15T01:37:34.951Z,86.10
2017-05-15T01:40:03.980Z,85.10
2017-05-15T01:42:32.973Z,86.00
2017-05-15T01:45:01.981Z,87.20
2017-05-15T01:47:31.026Z,83.00
2017-05-15T01:50:00.036Z,84.80
2017-05-15T01:52:42.399Z,85.70
2017-05-15T01:55:12.135Z,85.40
2017-05-15T01:57:41.127Z,85.60
2017-05-15T02:00:10.158Z,86.60
2017-05-15T02:02:39.148Z,87.00
2017-05-15T02:05:08.145Z,87.30
2017-05-15T02:07:37.180Z,87.60
2017-05-15T02:10:06.917Z,87.90
2017-05-15T02:12:35.923Z,88.10
2017-05-15T02:15:04.966Z,88.40
2017-05-15T02:17:34.694Z,88.40
2017-05-15T02:20:03.689Z,89.30
2017-05-15T02:22:32.723Z,88.90
2017-05-15T02:25:01.710Z,88.50
2017-05-15T02:27:30.701Z,88.80
2017-05-15T02:29:59.729Z,89.60
2017-05-15T02:32:28.735Z,89.80
2017-05-15T02:34:58.470Z,89.80
2017-05-15T02:37:27.618Z,90.00
2017-05-15T02:39:56.606Z,89.20
2017-05-15T02:42:25.596Z,87.70
2017-05-15T02:44:54.629Z,88.00
2017-05-15T02:47:42.943Z,87.50
2017-05-15T02:50:11.978Z,88.90
2017-05-15T02:52:40.971Z,90.00
2017-05-15T02:55:10.017Z,89.50
2017-05-15T02:57:39.088Z,89.10
2017-05-15T03:00:08.092Z,88.70
2017-05-15T03:02:43.132Z,88.90
2017-05-15T03:05:12.210Z,90.00
2017-05-15T03:07:41.215Z,89.70
2017-05-15T03:10:10.253Z,90.00
2017-05-15T03:12:39.264Z,90.20
2017-05-15T03:15:08.281Z,89.90
2017-05-15T03:17:43.325Z,88.10
2017-05-15T03:20:12.313Z,88.30
2017-05-15T03:22:41.320Z,89.40
2017-05-15T03:25:10.405Z,90.00
2017-05-15T03:27:39.394Z,90.00
2017-05-15T03:30:08.393Z,90.30
2017-05-15T03:32:37.425Z,90.10
2017-05-15T03:35:07.150Z,87.30
2017-05-15T03:37:36.149Z,89.90
2017-05-15T03:40:05.187Z,90.20
2017-05-15T03:42:41.379Z,90.10
2017-05-15T03:45:11.182Z,89.10
2017-05-15T03:47:40.910Z,90.00
2017-05-15T03:50:09.901Z,90.10
2017-05-15T03:52:38.951Z,90.20
2017-05-15T03:55:07.955Z,90.20
2017-05-15T03:57:40.642Z,90.60
2017-05-15T04:03:10.325Z,90.80
2017-05-15T04:05:39.324Z,90.70
2017-05-15T04:08:08.318Z,88.80
2017-05-15T04:10:43.253Z,89.70
2017-05-15T04:13:39.846Z,90.50
2017-05-15T04:16:09.623Z,90.90
2017-05-15T04:18:38.633Z,90.70
2017-05-15T04:21:07.635Z,90.60
2017-05-15T04:23:37.442Z,90.00
2017-05-15T04:26:07.165Z,90.60
2017-05-15T04:28:36.938Z,90.70
2017-05-15T04:31:05.922Z,90.10
2017-05-15T04:33:34.908Z,90.60
2017-05-15T04:36:03.943Z,90.70
2017-05-15T04:38:41.238Z,90.70
2017-05-15T04:41:11.014Z,90.90
2017-05-15T04:43:40.005Z,91.00
2017-05-15T04:46:08.998Z,91.00
2017-05-15T04:48:38.070Z,91.40
2017-05-15T04:51:07.067Z,90.90
2017-05-15T04:53:42.596Z,91.10
2017-05-15T04:56:11.599Z,91.30
2017-05-15T04:58:40.616Z,91.40
2017-05-15T05:01:09.663Z,91.60
2017-05-15T05:03:38.668Z,91.50
2017-05-15T05:06:07.697Z,91.40
2017-05-15T05:08:36.771Z,91.40
2017-05-15T05:11:05.761Z,91.60
2017-05-15T05:13:34.771Z,91.60
2017-05-15T05:16:03.828Z,91.60
2017-05-15T05:18:32.832Z,91.40
2017-05-15T05:21:22.413Z,91.60
2017-05-15T05:27:12.674Z,91.60
2017-05-15T05:30:13.865Z,91.80
2017-05-15T05:36:00.519Z,91.20
2017-05-15T05:38:57.719Z,89.40
2017-05-15T05:41:55.450Z,90.50
2017-05-15T05:44:41.096Z,90.60
2017-05-15T05:47:10.127Z,90.60
2017-05-15T05:49:42.165Z,89.90
2017-05-15T05:52:11.197Z,90.70
2017-05-15T05:54:42.135Z,90.30
2017-05-15T05:57:26.792Z,90.40
2017-05-15T06:00:16.166Z,90.70
2017-05-15T06:03:15.656Z,90.40
2017-05-15T06:06:12.081Z,90.50
2017-05-15T06:08:58.969Z,89.80
2017-05-15T06:11:55.407Z,89.20
2017-05-15T06:17:43.704Z,88.90
2017-05-15T06:20:39.973Z,90.40
2017-05-15T06:26:40.516Z,88.30
2017-05-15T06:29:40.180Z,87.80
2017-05-15T06:41:39.987Z,88.60
2017-05-15T06:44:35.784Z,88.50
2017-05-15T06:47:04.820Z,88.10
2017-05-15T06:49:41.115Z,88.30
2017-05-15T06:52:39.957Z,88.80
2017-05-15T06:55:09.687Z,87.70
2017-05-15T06:57:41.680Z,88.00
2017-05-15T07:00:40.904Z,87.50
2017-05-15T07:03:09.953Z,87.10
2017-05-15T07:05:40.761Z,87.70
2017-05-15T07:08:40.985Z,87.50
2017-05-15T07:11:40.673Z,87.50
2017-05-15T07:17:11.161Z,85.60
2017-05-15T07:19:40.149Z,85.20
2017-05-15T07:22:09.155Z,84.00
2017-05-15T07:24:38.198Z,84.50
2017-05-15T07:27:07.214Z,85.30
2017-05-15T07:29:37.004Z,83.70
2017-05-15T07:32:06.015Z,83.20
2017-05-15T07:34:35.786Z,83.00
2017-05-15T07:37:04.786Z,81.90
2017-05-15T07:39:41.345Z,81.30
2017-05-15T07:42:10.383Z,81.90
2017-05-15T07:44:40.146Z,79.60
2017-05-15T07:47:09.199Z,79.60
2017-05-15T07:49:44.047Z,79.40
2017-05-15T07:52:13.077Z,77.30
2017-05-15T07:54:42.079Z,75.20
2017-05-15T07:57:41.229Z,75.10
2017-05-15T08:00:10.226Z,77.10
2017-05-15T08:02:39.259Z,79.30
2017-05-15T08:05:08.255Z,77.70
2017-05-15T08:07:43.437Z,77.20
2017-05-15T08:10:12.483Z,76.70
2017-05-15T08:15:42.568Z,76.50
2017-05-15T08:18:11.574Z,76.20
2017-05-15T08:23:41.355Z,74.50
2017-05-15T08:26:40.587Z,75.70
2017-05-15T08:32:10.894Z,74.50
2017-05-15T08:34:43.044Z,75.00
2017-05-15T08:37:40.455Z,74.00
2017-05-15T08:40:09.523Z,74.60
2017-05-15T08:42:39.255Z,74.50
2017-05-15T08:45:09.023Z,73.80
2017-05-15T08:47:44.178Z,74.20
2017-05-15T08:50:13.959Z,73.70
2017-05-15T08:52:42.977Z,71.30
2017-05-15T08:55:11.979Z,71.80
2017-05-15T08:57:41.002Z,70.80
2017-05-15T09:00:09.998Z,70.00
2017-05-15T09:02:39.049Z,67.80
2017-05-15T09:05:08.059Z,68.50
2017-05-15T09:07:37.839Z,68.00
2017-05-15T09:13:09.196Z,65.60
2017-05-15T09:15:38.453Z,65.60
2017-05-15T09:21:08.858Z,64.30
2017-05-15T09:23:37.850Z,66.10
2017-05-15T09:26:06.945Z,63.70
2017-05-15T09:28:35.991Z,65.80
2017-05-15T09:31:04.982Z,66.50
2017-05-15T09:33:33.973Z,66.70
2017-05-15T09:36:03.010Z,66.70
2017-05-15T09:38:42.603Z,68.40
2017-05-15T09:41:11.643Z,65.10
2017-05-15T09:43:40.635Z,65.20
2017-05-15T09:46:09.619Z,62.60
2017-05-15T09:48:38.646Z,63.60
2017-05-15T09:51:08.431Z,62.30
2017-05-15T09:53:43.714Z,61.60
2017-05-15T09:56:12.780Z,60.30
2017-05-15T09:58:42.414Z,58.90
2017-05-15T10:01:11.420Z,60.00
2017-05-15T10:03:40.457Z,60.00
2017-05-15T10:06:09.554Z,58.10
2017-05-15T10:08:38.561Z,59.50
2017-05-15T10:11:08.375Z,57.10
2017-05-15T10:13:43.139Z,55.80
2017-05-15T10:16:12.181Z,55.00
2017-05-15T10:18:41.664Z,58.10
2017-05-15T10:21:10.703Z,57.10
2017-05-15T10:23:40.435Z,57.50
2017-05-15T10:26:09.422Z,57.20
2017-05-15T10:28:38.459Z,58.40
2017-05-15T10:31:07.467Z,58.20
2017-05-15T10:33:42.456Z,59.00
2017-05-15T10:36:11.459Z,59.20
2017-05-15T10:38:40.477Z,57.30
2017-05-15T10:41:09.502Z,57.60
2017-05-15T10:43:39.246Z,57.00
2017-05-15T10:46:08.229Z,57.20
2017-05-15T10:48:43.905Z,56.80
2017-05-15T10:51:12.914Z,53.30
2017-05-15T10:53:41.912Z,54.40
2017-05-15T10:59:41.192Z,52.80
2017-05-15T11:02:15.875Z,53.80
2017-05-15T11:04:45.158Z,52.00
2017-05-15T11:07:14.151Z,51.60
2017-05-15T11:12:41.390Z,52.70
2017-05-15T11:15:10.373Z,51.60
2017-05-15T11:17:39.355Z,51.50
2017-05-15T11:23:09.857Z,52.40
2017-05-15T11:25:42.607Z,52.40
2017-05-15T11:28:11.650Z,53.10
2017-05-15T11:30:41.383Z,50.90
2017-05-15T11:33:40.331Z,50.10
2017-05-15T11:36:09.327Z,49.40
2017-05-15T11:41:20.991Z,48.60
2017-05-15T11:43:50.025Z,48.30
2017-05-15T11:46:19.012Z,49.80
2017-05-15T11:48:48.012Z,47.20
2017-05-15T11:51:17.044Z,47.20
2017-05-15T11:53:46.036Z,45.90
2017-05-15T11:56:15.025Z,48.10
2017-05-15T11:58:44.076Z,46.40
2017-05-15T12:01:13.058Z,45.50
2017-05-15T12:03:42.065Z,45.40
2017-05-15T12:06:40.825Z,48.10
2017-05-15T12:09:09.812Z,45.20
2017-05-15T12:11:42.550Z,46.50
2017-05-15T12:14:12.282Z,46.90
2017-05-15T12:16:41.282Z,48.20
2017-05-15T12:19:10.302Z,48.80
2017-05-15T12:21:43.137Z,50.20
2017-05-15T12:26:51.322Z,51.90
2017-05-15T12:29:20.366Z,51.10
2017-05-15T12:31:49.372Z,52.20
2017-05-15T12:34:18.361Z,52.80
2017-05-15T12:36:47.396Z,51.30
2017-05-15T12:39:42.182Z,49.80
2017-05-15T12:42:11.216Z,49.30
2017-05-15T12:44:40.951Z,48.30
2017-05-15T12:47:09.942Z,49.00
2017-05-15T12:49:42.769Z,49.50
2017-05-15T12:52:11.767Z,47.90
2017-05-15T12:54:41.889Z,48.40
2017-05-15T12:57:10.928Z,47.10
2017-05-15T12:59:48.451Z,47.00
2017-05-15T13:04:56.855Z,47.40
2017-05-15T13:07:25.850Z,46.50
2017-05-15T13:09:54.837Z,46.60
2017-05-15T13:12:23.858Z,46.10
2017-05-15T13:14:52.891Z,46.10
2017-05-15T13:17:41.794Z,47.60
2017-05-15T13:20:40.905Z,48.40
2017-05-15T13:23:09.934Z,48.80
2017-05-15T13:25:42.548Z,46.00
2017-05-15T13:28:11.583Z,45.30
2017-05-15T13:30:40.620Z,46.30
2017-05-15T13:33:10.343Z,44.70
2017-05-15T13:35:39.394Z,42.30
2017-05-15T13:38:08.383Z,41.30
2017-05-15T13:40:37.372Z,41.40
2017-05-15T13:43:06.415Z,44.00
2017-05-15T13:45:42.254Z,42.20
2017-05-15T13:48:12.008Z,43.80
2017-05-15T13:50:41.043Z,43.00
2017-05-15T13:53:10.025Z,43.40
2017-05-15T13:55:42.711Z,44.30
2017-05-15T13:58:11.710Z,39.70
2017-05-15T14:00:41.433Z,39.40
2017-05-15T14:03:11.206Z,40.80
2017-05-15T14:05:40.252Z,40.50
2017-05-15T14:08:09.244Z,39.80
2017-05-15T14:10:38.302Z,40.60
2017-05-15T14:13:07.306Z,41.20
2017-05-15T14:15:37.040Z,42.50
2017-05-15T14:18:06.179Z,43.00
2017-05-15T14:20:35.168Z,43.10
2017-05-15T14:23:04.158Z,42.50
2017-05-15T14:25:42.968Z,41.40
2017-05-15T14:28:12.004Z,40.90
2017-05-15T14:30:40.987Z,40.00
2017-05-15T14:33:10.018Z,42.20
2017-05-15T14:35:42.096Z,41.00
2017-05-15T14:38:41.549Z,41.70
2017-05-15T14:41:10.553Z,39.90
2017-05-15T14:43:40.295Z,40.80
2017-05-15T14:46:09.349Z,41.50
2017-05-15T14:48:38.337Z,40.80
2017-05-15T14:51:07.322Z,42.00
2017-05-15T14:53:36.339Z,41.10
2017-05-15T14:56:06.107Z,42.80
2017-05-15T14:58:35.111Z,43.50
2017-05-15T15:01:04.173Z,42.90
2017-05-15T15:03:33.171Z,43.40
2017-05-15T15:06:02.157Z,43.40
2017-05-15T15:08:44.299Z,45.10
2017-05-15T15:11:13.300Z,44.20
2017-05-15T15:16:20.784Z,45.40
2017-05-15T15:18:49.944Z,43.80
2017-05-15T15:21:18.927Z,42.20
2017-05-15T15:23:47.964Z,41.90
2017-05-15T15:26:42.575Z,42.40
2017-05-15T15:29:11.622Z,41.90
2017-05-15T15:31:42.250Z,39.30
2017-05-15T15:34:11.238Z,41.30
2017-05-15T15:39:42.559Z,47.20
2017-05-15T15:42:11.546Z,46.70
2017-05-15T15:44:41.050Z,46.30
2017-05-15T15:47:30.740Z,47.40
2017-05-15T15:53:01.024Z,48.10
2017-05-15T15:55:43.305Z,48.30
2017-05-15T15:58:41.079Z,49.50
2017-05-15T16:01:40.954Z,50.20
2017-05-15T16:04:09.981Z,50.10
2017-05-15T16:06:42.870Z,50.00
2017-05-15T16:09:11.909Z,50.50
2017-05-15T16:11:40.899Z,50.90
2017-05-15T16:17:11.154Z,51.00
2017-05-15T16:19:40.310Z,51.70
2017-05-15T16:22:09.304Z,52.00
2017-05-15T16:24:38.325Z,51.20
2017-05-15T16:27:07.314Z,51.10
2017-05-15T16:29:36.305Z,50.40
2017-05-15T16:32:05.330Z,50.50
2017-05-15T16:34:34.345Z,51.10
2017-05-15T16:37:04.073Z,50.30
2017-05-15T16:39:33.108Z,51.50
2017-05-15T16:42:02.111Z,50.90
2017-05-15T16:44:31.104Z,51.10
2017-05-15T16:47:00.133Z,50.10
2017-05-15T16:49:42.151Z,50.30
2017-05-15T16:52:11.185Z,50.60
2017-05-15T16:54:40.223Z,50.20
2017-05-15T16:57:40.596Z,50.80
2017-05-15T17:00:09.655Z,50.20
2017-05-15T17:02:42.347Z,50.70
2017-05-15T17:05:11.383Z,50.30
2017-05-15T17:07:40.426Z,49.80
2017-05-15T17:10:09.411Z,48.80
2017-05-15T17:12:38.459Z,49.50
2017-05-15T17:18:08.496Z,49.20
2017-05-15T17:20:37.548Z,49.00
2017-05-15T17:23:06.533Z,49.80
2017-05-15T17:25:42.609Z,50.20
2017-05-15T17:28:11.600Z,51.80
2017-05-15T17:30:42.137Z,52.00
2017-05-15T17:33:11.128Z,51.70
2017-05-15T17:35:41.570Z,51.30
2017-05-15T17:38:40.986Z,53.30
2017-05-15T17:41:10.001Z,53.90
2017-05-15T17:43:39.804Z,53.50
2017-05-15T17:46:09.532Z,53.00
2017-05-15T17:48:38.571Z,53.80
2017-05-15T17:54:08.914Z,55.10
2017-05-15T17:56:44.282Z,54.90
2017-05-15T17:59:13.308Z,55.40
2017-05-15T18:01:42.302Z,55.60
2017-05-15T18:04:11.316Z,55.40
2017-05-15T18:06:40.306Z,55.20
2017-05-15T18:09:09.340Z,55.30
2017-05-15T18:11:38.432Z,55.00
2017-05-15T18:20:09.815Z,53.90
2017-05-15T18:22:38.867Z,54.60
2017-05-15T18:25:07.871Z,54.90
2017-05-15T18:27:42.767Z,55.50
2017-05-15T18:30:12.504Z,56.30
2017-05-15T18:32:41.496Z,56.30
2017-05-15T18:35:40.960Z,56.30
2017-05-15T18:38:40.807Z,56.30
2017-05-15T18:41:09.842Z,56.50
2017-05-15T18:43:38.880Z,57.30
2017-05-15T18:46:07.905Z,57.10
2017-05-15T18:48:43.582Z,57.20
2017-05-15T18:51:12.586Z,57.50
2017-05-15T18:53:41.600Z,58.10
2017-05-15T18:56:11.476Z,58.10
2017-05-15T18:58:40.508Z,58.60
2017-05-15T19:01:10.271Z,59.00
2017-05-15T19:03:39.273Z,59.00
2017-05-15T19:06:08.744Z,59.60
2017-05-15T19:08:37.753Z,59.80
2017-05-15T19:11:06.767Z,60.00
2017-05-15T19:13:35.828Z,60.20
2017-05-15T19:16:04.837Z,59.90
2017-05-15T19:18:43.722Z,60.60
2017-05-15T19:21:12.756Z,60.50
2017-05-15T19:23:42.419Z,60.60
2017-05-15T19:26:11.455Z,60.70
2017-05-15T19:28:40.435Z,61.40
2017-05-15T19:34:10.813Z,61.00
2017-05-15T19:36:39.841Z,61.30
2017-05-15T19:39:08.844Z,62.30
2017-05-15T19:41:37.831Z,63.10
2017-05-15T19:44:06.884Z,63.10
2017-05-15T19:46:35.873Z,63.20
2017-05-15T19:52:05.691Z,64.30
2017-05-15T19:54:34.684Z,65.00
2017-05-15T19:57:03.664Z,65.10
2017-05-15T19:59:32.684Z,65.30
2017-05-15T20:05:02.928Z,64.70
2017-05-15T20:07:31.929Z,65.30
2017-05-15T20:10:00.944Z,67.10
2017-05-15T20:12:30.108Z,65.70
2017-05-15T20:14:59.099Z,66.40
2017-05-15T20:17:28.138Z,67.20
2017-05-15T20:19:57.148Z,67.20
2017-05-15T20:22:26.159Z,66.60
2017-05-15T20:24:55.194Z,67.20
2017-05-15T20:27:24.928Z,67.90
2017-05-15T20:29:53.913Z,67.00
2017-05-15T20:32:22.961Z,67.60
2017-05-15T20:34:51.991Z,68.90
2017-05-15T20:37:21.721Z,68.10
2017-05-15T20:39:50.762Z,69.10
2017-05-15T20:42:19.771Z,68.80
2017-05-15T20:44:49.502Z,69.80
2017-05-15T20:47:18.555Z,70.60
2017-05-15T20:49:47.548Z,70.00
2017-05-15T20:52:16.583Z,67.80
2017-05-15T20:54:45.597Z,65.70
2017-05-15T20:57:14.644Z,67.00
2017-05-15T20:59:44.393Z,65.70
2017-05-15T21:02:13.377Z,62.50
2017-05-15T21:04:42.423Z,61.40
2017-05-15T21:07:11.416Z,63.10
2017-05-15T21:09:43.401Z,62.30
2017-05-15T21:12:13.147Z,62.00
2017-05-15T21:14:42.846Z,60.70
2017-05-15T21:17:11.830Z,60.30
2017-05-15T21:19:40.813Z,60.20
2017-05-15T21:22:10.616Z,60.30
2017-05-15T21:24:40.366Z,63.30
2017-05-15T21:27:09.390Z,62.90
2017-05-15T21:29:44.828Z,61.60
2017-05-15T21:32:13.820Z,60.60
2017-05-15T21:34:42.819Z,61.20
2017-05-15T21:37:11.854Z,61.80
2017-05-15T21:39:42.836Z,61.40
2017-05-15T21:42:11.884Z,61.50
2017-05-15T21:44:41.616Z,64.80
2017-05-15T21:47:10.642Z,68.00
2017-05-15T21:49:39.641Z,69.20
2017-05-15T21:55:10.376Z,62.00
2017-05-15T21:57:39.363Z,61.50
2017-05-15T22:00:08.415Z,61.20
2017-05-15T22:02:38.149Z,61.10
2017-05-15T22:08:08.103Z,61.10
2017-05-15T22:10:43.680Z,61.60
2017-05-15T22:13:42.531Z,61.20
2017-05-15T22:16:11.514Z,62.00
2017-05-15T22:18:40.526Z,62.20
2017-05-15T22:21:09.509Z,61.60
2017-05-15T22:26:39.268Z,64.60
2017-05-15T22:29:08.332Z,63.10
2017-05-15T22:31:43.506Z,65.70
2017-05-15T22:34:12.511Z,69.30
2017-05-15T22:39:42.928Z,73.20
2017-05-15T22:42:11.936Z,74.70
2017-05-15T22:44:40.973Z,73.60
2017-05-15T22:47:09.980Z,74.50
2017-05-15T22:49:41.286Z,75.30
2017-05-15T22:52:10.297Z,73.50
2017-05-15T22:54:43.933Z,72.10
2017-05-15T22:57:12.967Z,68.10
2017-05-15T22:59:41.952Z,66.80
2017-05-15T23:02:10.950Z,66.90
2017-05-15T23:04:43.825Z,65.00
2017-05-15T23:07:41.157Z,64.30
2017-05-15T23:10:10.200Z,64.50
2017-05-15T23:12:39.947Z,64.30
2017-05-15T23:15:08.949Z,63.80
2017-05-15T23:17:37.997Z,64.10
2017-05-15T23:23:04.048Z,63.90
2017-05-15T23:25:33.052Z,63.70
2017-05-15T23:28:02.033Z,63.80
2017-05-15T23:30:31.787Z,63.60
2017-05-15T23:33:00.815Z,63.90
2017-05-15T23:35:29.812Z,63.80
2017-05-15T23:37:59.556Z,63.70
2017-05-15T23:40:28.603Z,63.80
2017-05-15T23:42:58.441Z,63.60
2017-05-15T23:45:28.238Z,63.70
2017-05-15T23:48:05.141Z,64.30
2017-05-15T23:50:43.921Z,66.40
2017-05-15T23:53:12.923Z,70.60
2017-05-15T23:55:41.933Z,73.30
2017-05-15T23:58:11.700Z,74.90
